OHP548 UUMU-UUMU
Flight info
| Callsign | OHP548 |
|---|---|
| Flight time | N/A |
| Altitude | 1500 |
| Route | UUMU/30L 5555N03759E 5558N03803E 5552N03812E |
| Aircraft | MI17/M-SDFGRZ/C |
Departure
| Time | 2026-04-19 13:46 |
|---|---|
| Airport | Chkalovskiy Air Base (UUMU) |
Arrival
| Time | N/A |
|---|---|
| Airport | Chkalovskiy Air Base (UUMU) |
| Time | Latitude | Longitude | Altitude | Speed | Heading |
|---|---|---|---|---|---|
| 2026-04-19 13:46 | 55.93721 | 37.99359 | 1529 ft | 103 kts | 46° |
| 2026-04-19 13:46 | 55.94203 | 38.00278 | 1535 ft | 103 kts | 42° |
| 2026-04-19 13:47 | 55.94725 | 38.01328 | 1482 ft | 118 kts | 50° |
| 2026-04-19 13:47 | 55.95134 | 38.02481 | 1594 ft | 115 kts | 43° |
| 2026-04-19 13:47 | 55.95553 | 38.03762 | 1623 ft | 119 kts | 61° |
| 2026-04-19 13:47 | 55.95651 | 38.05238 | 1554 ft | 129 kts | 109° |
| 2026-04-19 13:48 | 55.95152 | 38.06565 | 1472 ft | 131 kts | 133° |
| 2026-04-19 13:48 | 55.94541 | 38.07794 | 1373 ft | 134 kts | 134° |
| 2026-04-19 13:48 | 55.93938 | 38.09074 | 1317 ft | 135 kts | 128° |
| 2026-04-19 13:48 | 55.93316 | 38.10274 | 1113 ft | 133 kts | 137° |
| 2026-04-19 13:49 | 55.92578 | 38.11318 | 1187 ft | 132 kts | 142° |
| 2026-04-19 13:49 | 55.91875 | 38.12376 | 1367 ft | 134 kts | 137° |
| 2026-04-19 13:49 | 55.91223 | 38.13514 | 1571 ft | 135 kts | 140° |
| 2026-04-19 13:49 | 55.90527 | 38.14731 | 1594 ft | 145 kts | 130° |
| 2026-04-19 13:50 | 55.89885 | 38.16128 | 1607 ft | 151 kts | 130° |
| 2026-04-19 13:50 | 55.89204 | 38.17554 | 1501 ft | 157 kts | 126° |
| 2026-04-19 13:50 | 55.88569 | 38.19146 | 1302 ft | 158 kts | 129° |
| 2026-04-19 13:50 | 55.87720 | 38.20346 | 1085 ft | 154 kts | 146° |
| 2026-04-19 13:51 | 55.86941 | 38.20284 | 1258 ft | 124 kts | 235° |
| 2026-04-19 13:51 | 55.86987 | 38.18803 | 1249 ft | 126 kts | 286° |
| 2026-04-19 13:51 | 55.86867 | 38.17297 | 1096 ft | 139 kts | 231° |
| 2026-04-19 13:51 | 55.86046 | 38.16330 | 1138 ft | 141 kts | 209° |
| 2026-04-19 13:52 | 55.85159 | 38.15528 | 1232 ft | 146 kts | 205° |
| 2026-04-19 13:52 | 55.84275 | 38.14885 | 1404 ft | 136 kts | 207° |
| 2026-04-19 13:52 | 55.83695 | 38.13684 | 1451 ft | 125 kts | 265° |
| 2026-04-19 13:52 | 55.84099 | 38.12356 | 1499 ft | 135 kts | 322° |
| 2026-04-19 13:53 | 55.84941 | 38.11436 | 1290 ft | 146 kts | 328° |
| 2026-04-19 13:53 | 55.85699 | 38.10272 | 1175 ft | 127 kts | 311° |
| 2026-04-19 13:53 | 55.86300 | 38.09092 | 900 ft | 131 kts | 311° |
| 2026-04-19 13:53 | 55.86897 | 38.07868 | 542 ft | 121 kts | 311° |
| 2026-04-19 13:54 | 55.87392 | 38.06846 | 516 ft | 98 kts | 311° |
| 2026-04-19 13:54 | 55.87799 | 38.06022 | 492 ft | 82 kts | 306° |
| 2026-04-19 13:54 | 55.88141 | 38.05283 | 500 ft | 74 kts | 310° |
| 2026-04-19 13:54 | 55.88461 | 38.04634 | 502 ft | 69 kts | 313° |